createdAt,value
2022-11-23T00:08:53.073Z,7.9
2022-11-23T00:23:22.588Z,8
2022-11-23T00:37:52.584Z,8.1
2022-11-23T00:52:22.539Z,8.1
2022-11-23T01:06:52.125Z,8.2
2022-11-23T01:21:22.148Z,8.2
2022-11-23T01:35:52.003Z,8.1
2022-11-23T01:50:20.966Z,8.1
2022-11-23T02:04:50.753Z,8
2022-11-23T02:19:20.106Z,8
2022-11-23T02:33:48.974Z,7.9
2022-11-23T02:48:19.621Z,7.9
2022-11-23T03:02:49.832Z,8
2022-11-23T03:17:19.460Z,8
2022-11-23T03:31:49.092Z,8
2022-11-23T03:46:19.046Z,8.1
2022-11-23T04:00:49.033Z,8.1
2022-11-23T04:15:18.608Z,8.1
2022-11-23T04:30:01.885Z,8.1
2022-11-23T04:44:23.541Z,8.1
2022-11-23T04:58:53.693Z,8.1
2022-11-23T05:13:22.558Z,8.1
2022-11-23T05:27:51.790Z,7.9
2022-11-23T05:42:21.603Z,7.9
2022-11-23T05:56:50.934Z,7.8
2022-11-23T06:11:21.006Z,7.8
2022-11-23T06:25:50.830Z,7.8
2022-11-23T06:40:20.692Z,7.9
2022-11-23T06:54:49.362Z,7.8
2022-11-23T07:09:19.659Z,7.8
2022-11-23T07:23:49.788Z,7.9
2022-11-23T07:38:19.323Z,8
2022-11-23T07:52:49.196Z,8.1
2022-11-23T08:07:19.215Z,8.1
2022-11-23T08:21:49.028Z,8.2
2022-11-23T08:36:18.997Z,8.3
2022-11-23T08:50:51.087Z,8.3
2022-11-23T09:05:19.891Z,8.5
2022-11-23T09:19:56.286Z,9.3
2022-11-23T09:34:22.598Z,8.9
2022-11-23T09:48:49.935Z,9
2022-11-23T10:03:19.634Z,8.9
2022-11-23T10:17:48.380Z,9.1
2022-11-23T10:32:18.606Z,9.1
2022-11-23T10:46:48.069Z,9
2022-11-23T11:01:17.434Z,9.2
2022-11-23T11:15:47.485Z,9.3
2022-11-23T11:30:16.010Z,9.3
2022-11-23T11:44:47.061Z,9.5
2022-11-23T11:59:17.692Z,9.9
2022-11-23T12:13:46.678Z,9.5
2022-11-23T12:28:16.703Z,9.8
2022-11-23T12:42:46.168Z,9.8
2022-11-23T12:57:15.284Z,9.6
2022-11-23T13:11:44.783Z,9.6
2022-11-23T13:26:15.365Z,9.5
2022-11-23T13:40:45.852Z,9.7
2022-11-23T13:55:14.513Z,9.5
2022-11-23T14:09:42.455Z,9.2
2022-11-23T14:24:15.650Z,9.2
2022-11-23T14:38:42.898Z,9.2
2022-11-23T14:53:13.208Z,9.1
2022-11-23T15:07:42.658Z,8.8
2022-11-23T15:22:11.399Z,8.6
2022-11-23T15:36:41.228Z,8.4
2022-11-23T15:51:10.794Z,8.5
2022-11-23T16:05:40.053Z,8.6
2022-11-23T16:20:10.014Z,8.5
2022-11-23T16:34:38.894Z,8.4
2022-11-23T16:49:08.184Z,8.3
2022-11-23T17:03:37.511Z,8
2022-11-23T17:18:06.456Z,7.9
2022-11-23T17:32:37.120Z,7.9
2022-11-23T17:47:05.012Z,7.7
2022-11-23T18:01:34.299Z,7.4
2022-11-23T18:16:01.950Z,7.5
2022-11-23T18:30:32.778Z,7.4
2022-11-23T18:45:01.053Z,7.5
2022-11-23T19:00:01.556Z,7.6
2022-11-23T19:14:17.075Z,7.6
2022-11-23T19:28:47.185Z,7.6
2022-11-23T19:43:16.066Z,7.6
2022-11-23T19:57:46.382Z,7.8
2022-11-23T20:12:13.215Z,7.4
2022-11-23T20:26:43.019Z,7.6
2022-11-23T20:41:16.122Z,7.7
2022-11-23T20:55:45.623Z,7.7
2022-11-23T21:10:15.490Z,7.9
2022-11-23T21:24:46.174Z,7.8
2022-11-23T21:39:14.985Z,7.8
2022-11-23T21:53:44.673Z,7.8
2022-11-23T22:08:28.554Z,7.5
2022-11-23T22:22:50.216Z,7.6
2022-11-23T22:37:20.948Z,7.6
2022-11-23T22:51:50.680Z,7.7
2022-11-23T23:06:18.812Z,7.7
2022-11-23T23:20:48.642Z,7.7
2022-11-23T23:35:19.206Z,7.5
2022-11-23T23:49:48.513Z,7.4
